Weather reports worldwide

Advertisment
Passo Rolle, Italy (16021): temperature & dewpoint: 08.12.2018 00:00:00 - 14.12.2018 00:00:00 (CET)Passo Rolle, Italy (16021): wind speed: 08.12.2018 00:00:00 - 14.12.2018 00:00:00 (CET)Passo Rolle, Italy (16021): wind direction: 08.12.2018 00:00:00 - 14.12.2018 00:00:00 (CET)Passo Rolle, Italy (16021): visibility: 08.12.2018 00:00:00 - 14.12.2018 00:00:00 (CET)
Date & Time tt [°C] td [°C] ff [km/h] ff [kn] dd vv [km]
14.12.2018 00:00:00 - - - - - -
13.12.2018 23:00:00 - - - - - -
13.12.2018 22:00:00 -11,0 -12,3 5 3 W 15
13.12.2018 21:00:00 - - - - - -
13.12.2018 20:00:00 - - - - - -
13.12.2018 19:00:00 -10,0 -12,5 2 1 N 1,2
13.12.2018 18:00:00 -10,0 -12,0 2 1 S 1,5
13.12.2018 17:00:00 -10,0 -11,0 4 2 ESE 8
13.12.2018 16:00:00 -9,0 -11,4 11 6 SE 3,0
13.12.2018 15:00:00 -7,0 -12,0 0 0 N 8
13.12.2018 14:00:00 -7,0 -13,0 2 1 - 8
13.12.2018 13:00:00 -6,8 -13,3 2 1 SSW 8
13.12.2018 12:00:00 -7,0 -14,0 4 2 N 10
13.12.2018 11:00:00 -8,0 -15,0 9 5 ENE 10
13.12.2018 10:00:00 -8,6 -15,8 4 2 ENE 50
13.12.2018 09:00:00 - - - - - -
13.12.2018 08:00:00 -11,0 -18,0 4 2 - 10
13.12.2018 07:00:00 -11,8 -19,2 2 1 SSW 80
13.12.2018 06:00:00 - - - - - -
13.12.2018 05:00:00 - - - - - -
13.12.2018 04:00:00 -11,2 -18,9 4 2 SSE 10
13.12.2018 03:00:00 - - - - - -
13.12.2018 02:00:00 - - - - - -
13.12.2018 01:00:00 -11,0 -18,1 13 7 SSE 10
13.12.2018 00:00:00 - - - - - -
12.12.2018 23:00:00 - - - - - -
12.12.2018 22:00:00 -10,2 -19,6 8 4 SE 10
12.12.2018 21:00:00 - - - - - -
12.12.2018 20:00:00 - - - - - -
12.12.2018 19:00:00 -9,6 -19,6 4 2 ESE 10
12.12.2018 18:00:00 -9,0 -20,0 8 4 SSE 10
12.12.2018 17:00:00 -9,0 -21,0 8 4 SE 10
12.12.2018 16:00:00 -7,8 -21,6 8 4 SSE 80
12.12.2018 15:00:00 -6,0 -21,0 8 4 SSE 10
12.12.2018 14:00:00 - - - - - -
12.12.2018 13:00:00 -7,2 -20,4 9 5 NW 80
12.12.2018 12:00:00 -8,0 -20,0 9 5 WNW 10
12.12.2018 11:00:00 -9,0 -21,0 13 7 NW 10
12.12.2018 10:00:00 -10,4 -20,3 8 4 NNW 75
12.12.2018 09:00:00 -11,0 -20,0 11 6 NNW 10
12.12.2018 08:00:00 -11,0 -21,0 13 7 NNW 10
12.12.2018 07:00:00 -11,6 -20,0 13 7 N 10
12.12.2018 06:00:00 -11,0 -19,0 11 6 N 10
12.12.2018 05:00:00 - - - - - -
12.12.2018 04:00:00 -11,6 -18,2 9 5 N 10
12.12.2018 03:00:00 - - - - - -
12.12.2018 02:00:00 - - - - - -
12.12.2018 01:00:00 11,2 2,8 13 7 NNW 10
12.12.2018 00:00:00 - - - - - -
11.12.2018 23:00:00 - - - - - -
11.12.2018 22:00:00 -10,8 -18,7 15 8 NNW 10
11.12.2018 21:00:00 - - - - - -
11.12.2018 20:00:00 - - - - - -
11.12.2018 19:00:00 -10,0 -20,5 9 5 NW 10
11.12.2018 18:00:00 -9,0 -21,0 21 11 NNW 10
11.12.2018 17:00:00 -9,0 -21,0 22 12 NW 10
11.12.2018 16:00:00 -8,4 -21,8 22 12 WNW 70
11.12.2018 15:00:00 -8,0 -21,0 21 11 NW 10
11.12.2018 14:00:00 -7,0 -20,0 15 8 NNW 10
11.12.2018 13:00:00 -7,2 -20,7 28 15 NNW 75
11.12.2018 12:00:00 -7,0 -20,0 37 20 WNW 10
11.12.2018 11:00:00 -8,0 -21,0 35 19 WNW 10
11.12.2018 10:00:00 -8,4 -18,2 28 15 NW 75
11.12.2018 09:00:00 -9,0 -21,0 34 18 NW 10
11.12.2018 08:00:00 -9,0 -19,0 29 16 NNW 10
11.12.2018 07:00:00 -8,8 -14,2 22 12 NNW 12
11.12.2018 06:00:00 -9,0 -14,0 26 14 NNW 10
11.12.2018 05:00:00 -9,0 -12,0 15 8 NNW 10
11.12.2018 04:00:00 -8,0 -8,7 11 6 WNW 12
11.12.2018 03:00:00 - - - - - -
11.12.2018 02:00:00 - - - - - -
11.12.2018 01:00:00 -7,4 -11,1 11 6 NNW 12
11.12.2018 00:00:00 - - - - - -
10.12.2018 23:00:00 - - - - - -
10.12.2018 22:00:00 -7,4 -17,3 13 7 N 10
10.12.2018 21:00:00 - - - - - -
10.12.2018 20:00:00 - - - - - -
10.12.2018 19:00:00 -6,6 -17,1 29 16 NNW 10
10.12.2018 18:00:00 -6,0 -16,0 18 10 NW 10
10.12.2018 17:00:00 -5,0 -17,0 29 16 NNW 10
10.12.2018 16:00:00 -5,0 -17,8 42 23 N 50
10.12.2018 15:00:00 -5,0 -18,0 42 23 NNW 10
10.12.2018 14:00:00 -5,0 -18,0 46 25 NNW 10
10.12.2018 13:00:00 -4,2 -16,7 41 22 N 75
10.12.2018 12:00:00 -4,0 -18,0 24 13 NW 10
10.12.2018 11:00:00 -5,0 -18,0 39 21 NNW 10
10.12.2018 10:00:00 -4,6 -17,4 39 21 NNW 70
10.12.2018 09:00:00 -4,0 -17,0 31 17 NNW 10
10.12.2018 08:00:00 -4,0 -16,0 44 24 N 10
10.12.2018 07:00:00 -4,0 -14,5 41 22 NNW 50
10.12.2018 06:00:00 -4,0 -16,0 31 17 N 10
10.12.2018 05:00:00 -4,0 -17,0 37 20 N 10
10.12.2018 04:00:00 -4,0 -11,9 50 27 NNW 20
10.12.2018 03:00:00 - - - - - -
10.12.2018 02:00:00 - - - - - -
10.12.2018 01:00:00 -4,0 -4,3 11 6 N 0,2
10.12.2018 00:00:00 - - - - - -
09.12.2018 23:00:00 - - - - - -
09.12.2018 22:00:00 -3,4 -8,1 16 9 N 10
09.12.2018 21:00:00 - - - - - -
09.12.2018 20:00:00 - - - - - -
09.12.2018 19:00:00 -2,6 -12,1 9 5 NNE 20
09.12.2018 18:00:00 -3,0 -12,0 11 6 NE 10
09.12.2018 17:00:00 -2,0 -13,0 9 5 NNE 10
09.12.2018 16:00:00 -1,6 -12,0 8 4 NW 20
09.12.2018 15:00:00 0,0 -10,0 16 9 WNW 10
09.12.2018 14:00:00 -2,0 -9,0 15 8 WNW 10
09.12.2018 13:00:00 -2,4 -13,0 9 5 NNW 10
09.12.2018 12:00:00 -3,0 -5,0 13 7 N 0,6
09.12.2018 11:00:00 -1,0 -7,0 5 3 NNW 10
09.12.2018 10:00:00 -1,4 -11,8 11 6 N 10
09.12.2018 09:00:00 -1,0 -11,0 9 5 NNW 0,1
09.12.2018 08:00:00 -2,0 -13,0 21 11 SE 10
09.12.2018 07:00:00 -4,2 -16,4 29 16 SSE 15
09.12.2018 06:00:00 -4,0 -17,0 26 14 SE 10
09.12.2018 05:00:00 -4,0 -17,0 13 7 ESE 10
09.12.2018 04:00:00 -3,2 -16,5 8 4 E 12
09.12.2018 03:00:00 - - - - - -
09.12.2018 02:00:00 - - - - - -
09.12.2018 01:00:00 -1,8 -15,2 11 6 ESE 12
09.12.2018 00:00:00 - - - - - -
08.12.2018 23:00:00 - - - - - -
08.12.2018 22:00:00 -3,6 -17,6 15 8 N 12
08.12.2018 21:00:00 - - - - - -
08.12.2018 20:00:00 - - - - - -
08.12.2018 19:00:00 -4,0 -17,6 11 6 NNW 50
08.12.2018 18:00:00 -4,0 -17,0 13 7 NNE 10
08.12.2018 17:00:00 -4,0 -18,0 13 7 N 10
08.12.2018 16:00:00 -2,2 -16,3 18 10 NW 80
08.12.2018 15:00:00 -2,0 -17,0 13 7 NW 10
08.12.2018 14:00:00 -2,0 -17,0 15 8 WNW 10
08.12.2018 13:00:00 -2,8 -19,7 21 11 N 80
08.12.2018 12:00:00 -3,0 -19,0 34 18 NNW 10
08.12.2018 11:00:00 -3,0 -20,0 18 10 N 10
08.12.2018 10:00:00 -3,2 -16,5 22 12 NW 80
08.12.2018 09:00:00 -4,0 -15,0 24 13 NNW 10
08.12.2018 08:00:00 -4,0 -14,0 15 8 NW 10
08.12.2018 07:00:00 -3,6 -5,8 13 7 NNW 6
08.12.2018 06:00:00 -4,0 -4,0 15 8 NNW 0,1
08.12.2018 05:00:00 -3,0 -4,0 18 10 WNW 0,1
08.12.2018 04:00:00 -1,4 -2,8 18 10 WNW 0,1
08.12.2018 03:00:00 - - - - - -
08.12.2018 02:00:00 - - - - - -
08.12.2018 01:00:00 -1,0 -3,2 4 2 N -
08.12.2018 00:00:00 - - - - - -

tt = temperature
td = dewpoint
ff = wind speed
dd = wind direction
vv = visibility

Next stations